sensor_id;sensor_type;location;lat;lon;timestamp;pressure;altitude;pressure_sealevel;temperature;humidity
4398;BME280;2213;49.720;7.296;2023-12-28T00:00:44;98012.69;;;3.76;100.00
4398;BME280;2213;49.720;7.296;2023-12-28T00:03:14;97994.00;;;3.82;100.00
4398;BME280;2213;49.720;7.296;2023-12-28T00:05:43;97995.25;;;3.78;100.00
4398;BME280;2213;49.720;7.296;2023-12-28T00:08:12;98001.25;;;3.78;100.00
4398;BME280;2213;49.720;7.296;2023-12-28T00:10:40;98001.63;;;3.83;100.00
4398;BME280;2213;49.720;7.296;2023-12-28T00:13:09;97996.53;;;3.91;100.00
4398;BME280;2213;49.720;7.296;2023-12-28T00:15:37;97999.47;;;3.96;100.00
4398;BME280;2213;49.720;7.296;2023-12-28T00:18:06;97991.28;;;4.01;100.00
4398;BME280;2213;49.720;7.296;2023-12-28T00:20:36;97978.44;;;4.09;100.00
4398;BME280;2213;49.720;7.296;2023-12-28T00:23:05;97988.19;;;4.15;100.00
4398;BME280;2213;49.720;7.296;2023-12-28T00:25:33;97989.00;;;4.16;100.00
4398;BME280;2213;49.720;7.296;2023-12-28T00:28:02;97997.00;;;4.22;100.00
4398;BME280;2213;49.720;7.296;2023-12-28T00:30:32;97986.84;;;4.29;100.00
4398;BME280;2213;49.720;7.296;2023-12-28T00:33:00;97986.72;;;4.30;100.00
4398;BME280;2213;49.720;7.296;2023-12-28T00:35:29;97994.19;;;4.33;100.00
4398;BME280;2213;49.720;7.296;2023-12-28T00:37:59;97997.28;;;4.37;100.00
4398;BME280;2213;49.720;7.296;2023-12-28T00:40:30;98001.03;;;4.42;100.00
4398;BME280;2213;49.720;7.296;2023-12-28T00:42:58;97996.06;;;4.49;100.00
4398;BME280;2213;49.720;7.296;2023-12-28T00:45:27;98008.88;;;4.50;100.00
4398;BME280;2213;49.720;7.296;2023-12-28T00:47:55;98010.47;;;4.51;100.00
4398;BME280;2213;49.720;7.296;2023-12-28T00:50:25;98005.53;;;4.58;100.00
4398;BME280;2213;49.720;7.296;2023-12-28T00:52:54;98007.34;;;4.66;100.00
4398;BME280;2213;49.720;7.296;2023-12-28T00:55:24;98018.09;;;4.71;100.00
4398;BME280;2213;49.720;7.296;2023-12-28T00:57:52;98020.38;;;4.74;100.00
4398;BME280;2213;49.720;7.296;2023-12-28T01:00:21;98030.13;;;4.80;100.00
4398;BME280;2213;49.720;7.296;2023-12-28T01:02:50;98022.88;;;4.83;100.00
4398;BME280;2213;49.720;7.296;2023-12-28T01:05:18;98024.69;;;4.91;100.00
4398;BME280;2213;49.720;7.296;2023-12-28T01:07:48;98028.00;;;5.01;100.00
4398;BME280;2213;49.720;7.296;2023-12-28T01:10:16;98017.03;;;5.07;100.00
4398;BME280;2213;49.720;7.296;2023-12-28T01:12:46;98009.63;;;5.12;100.00
4398;BME280;2213;49.720;7.296;2023-12-28T01:15:15;98022.13;;;5.17;100.00
4398;BME280;2213;49.720;7.296;2023-12-28T01:17:45;98035.41;;;5.22;100.00
4398;BME280;2213;49.720;7.296;2023-12-28T01:20:14;98039.19;;;5.27;100.00
4398;BME280;2213;49.720;7.296;2023-12-28T01:22:42;98037.75;;;5.33;100.00
4398;BME280;2213;49.720;7.296;2023-12-28T01:25:11;98045.91;;;5.38;100.00
4398;BME280;2213;49.720;7.296;2023-12-28T01:27:39;98048.81;;;5.43;100.00
4398;BME280;2213;49.720;7.296;2023-12-28T01:30:10;98049.00;;;5.49;100.00
4398;BME280;2213;49.720;7.296;2023-12-28T01:32:38;98047.41;;;5.56;100.00
4398;BME280;2213;49.720;7.296;2023-12-28T01:35:07;98058.31;;;5.60;100.00
4398;BME280;2213;49.720;7.296;2023-12-28T01:37:36;98067.91;;;5.68;100.00
4398;BME280;2213;49.720;7.296;2023-12-28T01:40:06;98068.09;;;5.74;100.00
4398;BME280;2213;49.720;7.296;2023-12-28T01:42:36;98064.22;;;5.78;100.00
4398;BME280;2213;49.720;7.296;2023-12-28T01:45:08;98059.53;;;5.82;100.00
4398;BME280;2213;49.720;7.296;2023-12-28T01:47:37;98078.06;;;5.87;100.00
4398;BME280;2213;49.720;7.296;2023-12-28T01:50:07;98077.75;;;5.90;100.00
4398;BME280;2213;49.720;7.296;2023-12-28T01:52:36;98094.63;;;5.94;100.00
4398;BME280;2213;49.720;7.296;2023-12-28T01:55:07;98083.97;;;5.97;100.00
4398;BME280;2213;49.720;7.296;2023-12-28T01:57:36;98090.75;;;5.98;100.00
4398;BME280;2213;49.720;7.296;2023-12-28T02:00:06;98092.06;;;6.02;100.00
4398;BME280;2213;49.720;7.296;2023-12-28T02:02:37;98095.31;;;6.04;100.00
4398;BME280;2213;49.720;7.296;2023-12-28T02:05:07;98089.81;;;6.07;100.00
4398;BME280;2213;49.720;7.296;2023-12-28T02:07:36;98099.88;;;6.10;100.00
4398;BME280;2213;49.720;7.296;2023-12-28T02:10:07;98097.28;;;6.10;100.00
4398;BME280;2213;49.720;7.296;2023-12-28T02:12:36;98105.72;;;6.12;100.00
4398;BME280;2213;49.720;7.296;2023-12-28T02:15:05;98105.72;;;6.12;100.00
4398;BME280;2213;49.720;7.296;2023-12-28T02:17:43;98097.78;;;6.14;100.00
4398;BME280;2213;49.720;7.296;2023-12-28T02:20:16;98100.88;;;6.17;100.00
4398;BME280;2213;49.720;7.296;2023-12-28T02:22:48;98105.09;;;6.18;100.00
4398;BME280;2213;49.720;7.296;2023-12-28T02:25:18;98096.34;;;6.19;100.00
4398;BME280;2213;49.720;7.296;2023-12-28T02:27:49;98096.84;;;6.23;100.00
4398;BME280;2213;49.720;7.296;2023-12-28T02:30:20;98085.63;;;6.22;100.00
4398;BME280;2213;49.720;7.296;2023-12-28T02:33:02;98085.81;;;6.21;100.00
4398;BME280;2213;49.720;7.296;2023-12-28T02:35:42;98069.09;;;6.23;100.00
4398;BME280;2213;49.720;7.296;2023-12-28T02:38:14;98077.53;;;6.25;100.00
4398;BME280;2213;49.720;7.296;2023-12-28T02:40:45;98080.78;;;6.27;100.00
4398;BME280;2213;49.720;7.296;2023-12-28T02:43:15;98070.41;;;6.27;100.00
4398;BME280;2213;49.720;7.296;2023-12-28T02:45:44;98068.94;;;6.33;100.00
4398;BME280;2213;49.720;7.296;2023-12-28T02:48:13;98050.63;;;6.34;100.00
4398;BME280;2213;49.720;7.296;2023-12-28T02:50:42;98059.06;;;6.36;100.00
4398;BME280;2213;49.720;7.296;2023-12-28T02:53:11;98071.38;;;6.34;100.00
4398;BME280;2213;49.720;7.296;2023-12-28T02:55:40;98066.84;;;6.36;100.00
4398;BME280;2213;49.720;7.296;2023-12-28T02:58:10;98057.28;;;6.37;100.00
4398;BME280;2213;49.720;7.296;2023-12-28T03:00:39;98052.88;;;6.37;100.00
4398;BME280;2213;49.720;7.296;2023-12-28T03:03:07;98057.75;;;6.40;100.00
4398;BME280;2213;49.720;7.296;2023-12-28T03:05:36;98068.78;;;6.42;100.00
4398;BME280;2213;49.720;7.296;2023-12-28T03:08:05;98065.41;;;6.42;100.00
4398;BME280;2213;49.720;7.296;2023-12-28T03:10:33;98068.78;;;6.42;100.00
4398;BME280;2213;49.720;7.296;2023-12-28T03:13:02;98067.81;;;6.43;100.00
4398;BME280;2213;49.720;7.296;2023-12-28T03:15:33;98074.66;;;6.44;100.00
4398;BME280;2213;49.720;7.296;2023-12-28T03:18:02;98065.09;;;6.45;100.00
4398;BME280;2213;49.720;7.296;2023-12-28T03:20:31;98062.00;;;6.41;100.00
4398;BME280;2213;49.720;7.296;2023-12-28T03:23:00;98060.84;;;6.44;100.00
4398;BME280;2213;49.720;7.296;2023-12-28T03:25:28;98068.16;;;6.48;100.00
4398;BME280;2213;49.720;7.296;2023-12-28T03:27:57;98069.00;;;6.49;100.00
4398;BME280;2213;49.720;7.296;2023-12-28T03:30:26;98066.22;;;6.50;100.00
4398;BME280;2213;49.720;7.296;2023-12-28T03:32:56;98053.91;;;6.52;100.00
4398;BME280;2213;49.720;7.296;2023-12-28T03:35:24;98063.13;;;6.55;100.00
4398;BME280;2213;49.720;7.296;2023-12-28T03:37:53;98068.00;;;6.58;100.00
4398;BME280;2213;49.720;7.296;2023-12-28T03:40:22;98062.63;;;6.59;100.00
4398;BME280;2213;49.720;7.296;2023-12-28T03:42:50;98062.50;;;6.61;100.00
4398;BME280;2213;49.720;7.296;2023-12-28T03:45:19;98052.59;;;6.65;100.00
4398;BME280;2213;49.720;7.296;2023-12-28T03:47:48;98064.13;;;6.62;100.00
4398;BME280;2213;49.720;7.296;2023-12-28T03:50:19;98043.50;;;6.61;100.00
4398;BME280;2213;49.720;7.296;2023-12-28T03:52:48;98038.78;;;6.64;100.00
4398;BME280;2213;49.720;7.296;2023-12-28T03:55:17;98046.25;;;6.67;100.00
4398;BME280;2213;49.720;7.296;2023-12-28T03:57:45;98043.81;;;6.66;100.00
4398;BME280;2213;49.720;7.296;2023-12-28T04:00:15;98047.72;;;6.70;100.00
4398;BME280;2213;49.720;7.296;2023-12-28T04:02:44;98057.13;;;6.71;100.00
4398;BME280;2213;49.720;7.296;2023-12-28T04:05:15;98051.13;;;6.70;100.00
4398;BME280;2213;49.720;7.296;2023-12-28T04:07:45;98055.19;;;6.73;100.00
4398;BME280;2213;49.720;7.296;2023-12-28T04:10:28;98049.81;;;6.74;100.00
4398;BME280;2213;49.720;7.296;2023-12-28T04:12:57;98048.69;;;6.77;100.00
4398;BME280;2213;49.720;7.296;2023-12-28T04:15:26;98047.38;;;6.81;100.00
4398;BME280;2213;49.720;7.296;2023-12-28T04:17:55;98057.78;;;6.81;100.00
4398;BME280;2213;49.720;7.296;2023-12-28T04:20:24;98042.84;;;6.83;100.00
4398;BME280;2213;49.720;7.296;2023-12-28T04:22:54;98051.28;;;6.85;100.00
4398;BME280;2213;49.720;7.296;2023-12-28T04:25:22;98037.13;;;6.87;100.00
4398;BME280;2213;49.720;7.296;2023-12-28T04:27:51;98049.97;;;6.89;100.00
4398;BME280;2213;49.720;7.296;2023-12-28T04:30:20;98040.22;;;6.91;100.00
4398;BME280;2213;49.720;7.296;2023-12-28T04:32:48;98040.56;;;6.96;100.00
4398;BME280;2213;49.720;7.296;2023-12-28T04:35:17;98043.78;;;6.98;100.00
4398;BME280;2213;49.720;7.296;2023-12-28T04:37:45;98040.22;;;6.99;100.00
4398;BME280;2213;49.720;7.296;2023-12-28T04:40:15;98036.47;;;7.01;100.00
4398;BME280;2213;49.720;7.296;2023-12-28T04:42:44;98043.78;;;7.06;100.00
4398;BME280;2213;49.720;7.296;2023-12-28T04:45:13;98052.88;;;7.10;100.00
4398;BME280;2213;49.720;7.296;2023-12-28T04:47:41;98055.16;;;7.13;100.00
4398;BME280;2213;49.720;7.296;2023-12-28T04:50:10;98063.59;;;7.15;100.00
4398;BME280;2213;49.720;7.296;2023-12-28T04:52:39;98067.50;;;7.19;100.00
4398;BME280;2213;49.720;7.296;2023-12-28T04:55:08;98070.75;;;7.21;100.00
4398;BME280;2213;49.720;7.296;2023-12-28T04:57:38;98065.22;;;7.24;100.00
4398;BME280;2213;49.720;7.296;2023-12-28T05:00:09;98056.44;;;7.25;100.00
4398;BME280;2213;49.720;7.296;2023-12-28T05:02:37;98064.88;;;7.27;100.00
4398;BME280;2213;49.720;7.296;2023-12-28T05:05:07;98061.31;;;7.28;100.00
4398;BME280;2213;49.720;7.296;2023-12-28T05:07:39;98062.75;;;7.31;100.00
4398;BME280;2213;49.720;7.296;2023-12-28T05:10:08;98062.63;;;7.32;100.00
4398;BME280;2213;49.720;7.296;2023-12-28T05:12:38;98061.47;;;7.35;100.00
4398;BME280;2213;49.720;7.296;2023-12-28T05:15:11;98061.94;;;7.38;100.00
4398;BME280;2213;49.720;7.296;2023-12-28T05:17:39;98068.09;;;7.37;100.00
4398;BME280;2213;49.720;7.296;2023-12-28T05:20:09;98068.09;;;7.37;100.00
4398;BME280;2213;49.720;7.296;2023-12-28T05:22:38;98077.38;;;7.40;100.00
4398;BME280;2213;49.720;7.296;2023-12-28T05:25:06;98071.81;;;7.43;100.00
4398;BME280;2213;49.720;7.296;2023-12-28T05:27:35;98066.63;;;7.43;100.00
4398;BME280;2213;49.720;7.296;2023-12-28T05:30:07;98071.66;;;7.44;100.00
4398;BME280;2213;49.720;7.296;2023-12-28T05:32:36;98072.50;;;7.45;100.00
4398;BME280;2213;49.720;7.296;2023-12-28T05:35:06;98076.19;;;7.50;100.00
4398;BME280;2213;49.720;7.296;2023-12-28T05:37:35;98059.63;;;7.51;100.00
4398;BME280;2213;49.720;7.296;2023-12-28T05:40:04;98056.69;;;7.54;100.00
4398;BME280;2213;49.720;7.296;2023-12-28T05:42:33;98062.53;;;7.56;100.00
4398;BME280;2213;49.720;7.296;2023-12-28T05:45:02;98064.34;;;7.56;100.00
4398;BME280;2213;49.720;7.296;2023-12-28T05:47:32;98062.22;;;7.59;100.00
4398;BME280;2213;49.720;7.296;2023-12-28T05:50:01;98063.66;;;7.62;100.00
4398;BME280;2213;49.720;7.296;2023-12-28T05:52:30;98058.25;;;7.64;100.00
4398;BME280;2213;49.720;7.296;2023-12-28T05:54:59;98056.94;;;7.68;100.00
4398;BME280;2213;49.720;7.296;2023-12-28T05:57:27;98052.75;;;7.67;100.00
4398;BME280;2213;49.720;7.296;2023-12-28T05:59:58;98057.44;;;7.71;100.00
4398;BME280;2213;49.720;7.296;2023-12-28T06:02:26;98050.28;;;7.73;100.00
4398;BME280;2213;49.720;7.296;2023-12-28T06:04:57;98056.31;;;7.74;100.00
4398;BME280;2213;49.720;7.296;2023-12-28T06:07:26;98060.50;;;7.75;100.00
4398;BME280;2213;49.720;7.296;2023-12-28T06:09:54;98061.16;;;7.77;100.00
4398;BME280;2213;49.720;7.296;2023-12-28T06:12:23;98064.41;;;7.79;100.00
4398;BME280;2213;49.720;7.296;2023-12-28T06:14:51;98072.88;;;7.81;100.00
4398;BME280;2213;49.720;7.296;2023-12-28T06:17:20;98081.31;;;7.83;100.00
4398;BME280;2213;49.720;7.296;2023-12-28T06:19:48;98076.56;;;7.86;100.00
4398;BME280;2213;49.720;7.296;2023-12-28T06:22:19;98073.81;;;7.88;100.00
4398;BME280;2213;49.720;7.296;2023-12-28T06:24:48;98077.06;;;7.90;100.00
4398;BME280;2213;49.720;7.296;2023-12-28T06:27:17;98069.41;;;7.88;100.00
4398;BME280;2213;49.720;7.296;2023-12-28T06:29:45;98075.91;;;7.92;100.00
4398;BME280;2213;49.720;7.296;2023-12-28T06:32:14;98077.69;;;7.92;100.00
4398;BME280;2213;49.720;7.296;2023-12-28T06:34:42;98074.09;;;7.93;100.00
4398;BME280;2213;49.720;7.296;2023-12-28T06:37:11;98085.97;;;7.95;100.00
4398;BME280;2213;49.720;7.296;2023-12-28T06:39:41;98095.41;;;7.96;100.00
4398;BME280;2213;49.720;7.296;2023-12-28T06:42:10;98098.81;;;7.97;100.00
4398;BME280;2213;49.720;7.296;2023-12-28T06:44:38;98094.25;;;7.99;100.00
4398;BME280;2213;49.720;7.296;2023-12-28T06:47:07;98093.28;;;8.00;100.00
4398;BME280;2213;49.720;7.296;2023-12-28T06:49:35;98097.50;;;8.01;100.00
4398;BME280;2213;49.720;7.296;2023-12-28T06:52:04;98096.34;;;8.03;100.00
4398;BME280;2213;49.720;7.296;2023-12-28T06:54:33;98099.78;;;8.04;100.00
4398;BME280;2213;49.720;7.296;2023-12-28T06:57:04;98103.00;;;8.06;100.00
4398;BME280;2213;49.720;7.296;2023-12-28T06:59:32;98102.19;;;8.05;100.00
4398;BME280;2213;49.720;7.296;2023-12-28T07:02:01;98099.44;;;8.07;100.00
4398;BME280;2213;49.720;7.296;2023-12-28T07:04:29;98107.88;;;8.09;100.00
4398;BME280;2213;49.720;7.296;2023-12-28T07:07:00;98105.94;;;8.11;100.00
4398;BME280;2213;49.720;7.296;2023-12-28T07:09:28;98116.00;;;8.14;100.00
4398;BME280;2213;49.720;7.296;2023-12-28T07:11:57;98107.03;;;8.17;100.00
4398;BME280;2213;49.720;7.296;2023-12-28T07:14:28;98111.44;;;8.16;100.00
4398;BME280;2213;49.720;7.296;2023-12-28T07:16:57;98107.69;;;8.19;100.00
4398;BME280;2213;49.720;7.296;2023-12-28T07:19:26;98099.88;;;8.19;100.00
4398;BME280;2213;49.720;7.296;2023-12-28T07:21:55;98104.91;;;8.20;100.00
4398;BME280;2213;49.720;7.296;2023-12-28T07:24:24;98106.19;;;8.24;100.00
4398;BME280;2213;49.720;7.296;2023-12-28T07:26:52;98099.34;;;8.23;100.00
4398;BME280;2213;49.720;7.296;2023-12-28T07:29:21;98102.59;;;8.25;100.00
4398;BME280;2213;49.720;7.296;2023-12-28T07:31:55;98107.16;;;8.23;100.00
4398;BME280;2213;49.720;7.296;2023-12-28T07:34:23;98107.81;;;8.25;100.00
4398;BME280;2213;49.720;7.296;2023-12-28T07:36:52;98103.22;;;8.27;100.00
4398;BME280;2213;49.720;7.296;2023-12-28T07:39:21;98095.13;;;8.22;100.00
4398;BME280;2213;49.720;7.296;2023-12-28T07:41:50;98104.22;;;8.26;100.00
4398;BME280;2213;49.720;7.296;2023-12-28T07:44:18;98104.22;;;8.26;100.00
4398;BME280;2213;49.720;7.296;2023-12-28T07:46:47;98111.88;;;8.28;100.00
4398;BME280;2213;49.720;7.296;2023-12-28T07:49:17;98114.63;;;8.26;100.00
4398;BME280;2213;49.720;7.296;2023-12-28T07:51:46;98125.03;;;8.26;100.00
4398;BME280;2213;49.720;7.296;2023-12-28T07:54:14;98125.88;;;8.27;100.00
4398;BME280;2213;49.720;7.296;2023-12-28T07:56:43;98131.06;;;8.27;100.00
4398;BME280;2213;49.720;7.296;2023-12-28T07:59:12;98128.34;;;8.28;100.00
4398;BME280;2213;49.720;7.296;2023-12-28T08:01:40;98116.25;;;8.27;100.00
4398;BME280;2213;49.720;7.296;2023-12-28T08:04:09;98123.94;;;8.29;100.00
4398;BME280;2213;49.720;7.296;2023-12-28T08:06:39;98133.22;;;8.31;100.00
4398;BME280;2213;49.720;7.296;2023-12-28T08:09:08;98133.22;;;8.31;100.00
4398;BME280;2213;49.720;7.296;2023-12-28T08:11:37;98123.41;;;8.33;100.00
4398;BME280;2213;49.720;7.296;2023-12-28T08:14:06;98111.22;;;8.34;100.00
4398;BME280;2213;49.720;7.296;2023-12-28T08:16:34;98116.75;;;8.31;100.00
4398;BME280;2213;49.720;7.296;2023-12-28T08:19:03;98122.44;;;8.34;100.00
4398;BME280;2213;49.720;7.296;2023-12-28T08:21:32;98125.72;;;8.36;100.00
4398;BME280;2213;49.720;7.296;2023-12-28T08:24:03;98116.88;;;8.37;100.00
4398;BME280;2213;49.720;7.296;2023-12-28T08:26:31;98131.38;;;8.40;100.00
4398;BME280;2213;49.720;7.296;2023-12-28T08:29:00;98126.00;;;8.41;100.00
4398;BME280;2213;49.720;7.296;2023-12-28T08:31:29;98131.84;;;8.43;100.00
4398;BME280;2213;49.720;7.296;2023-12-28T08:33:58;98129.06;;;8.45;100.00
4398;BME280;2213;49.720;7.296;2023-12-28T08:36:27;98123.03;;;8.44;100.00
4398;BME280;2213;49.720;7.296;2023-12-28T08:38:55;98118.47;;;8.46;100.00
4398;BME280;2213;49.720;7.296;2023-12-28T08:41:25;98127.91;;;8.47;100.00
4398;BME280;2213;49.720;7.296;2023-12-28T08:43:54;98119.94;;;8.49;100.00
4398;BME280;2213;49.720;7.296;2023-12-28T08:46:23;98114.38;;;8.52;100.00
4398;BME280;2213;49.720;7.296;2023-12-28T08:48:53;98120.41;;;8.52;100.00
4398;BME280;2213;49.720;7.296;2023-12-28T08:51:22;98132.25;;;8.55;100.00
4398;BME280;2213;49.720;7.296;2023-12-28T08:53:50;98138.91;;;8.57;100.00
4398;BME280;2213;49.720;7.296;2023-12-28T08:56:21;98138.91;;;8.57;100.00
4398;BME280;2213;49.720;7.296;2023-12-28T08:58:51;98137.78;;;8.60;100.00
4398;BME280;2213;49.720;7.296;2023-12-28T09:01:22;98133.19;;;8.62;100.00
4398;BME280;2213;49.720;7.296;2023-12-28T09:03:53;98132.03;;;8.65;100.00
4398;BME280;2213;49.720;7.296;2023-12-28T09:06:22;98137.25;;;8.65;100.00
4398;BME280;2213;49.720;7.296;2023-12-28T09:08:52;98148.31;;;8.67;100.00
4398;BME280;2213;49.720;7.296;2023-12-28T09:11:21;98134.94;;;8.70;100.00
4398;BME280;2213;49.720;7.296;2023-12-28T09:13:51;98139.81;;;8.73;100.00
4398;BME280;2213;49.720;7.296;2023-12-28T09:16:20;98140.44;;;8.75;100.00
4398;BME280;2213;49.720;7.296;2023-12-28T09:18:48;98144.31;;;8.79;100.00
4398;BME280;2213;49.720;7.296;2023-12-28T09:21:17;98148.72;;;8.78;100.00
4398;BME280;2213;49.720;7.296;2023-12-28T09:23:45;98149.72;;;8.77;100.00
4398;BME280;2213;49.720;7.296;2023-12-28T09:26:14;98151.16;;;8.80;100.00
4398;BME280;2213;49.720;7.296;2023-12-28T09:28:43;98165.84;;;8.81;100.00
4398;BME280;2213;49.720;7.296;2023-12-28T09:31:14;98151.78;;;8.82;100.00
4398;BME280;2213;49.720;7.296;2023-12-28T09:33:43;98166.31;;;8.84;100.00
4398;BME280;2213;49.720;7.296;2023-12-28T09:36:12;98174.28;;;8.83;100.00
4398;BME280;2213;49.720;7.296;2023-12-28T09:38:41;98180.31;;;8.83;100.00
4398;BME280;2213;49.720;7.296;2023-12-28T09:41:13;98187.16;;;8.84;100.00
4398;BME280;2213;49.720;7.296;2023-12-28T09:43:53;98187.97;;;8.85;100.00
4398;BME280;2213;49.720;7.296;2023-12-28T09:46:25;98179.50;;;8.83;100.00
4398;BME280;2213;49.720;7.296;2023-12-28T09:48:55;98173.00;;;8.79;100.00
4398;BME280;2213;49.720;7.296;2023-12-28T09:51:25;98175.09;;;8.83;100.00
4398;BME280;2213;49.720;7.296;2023-12-28T09:53:54;98176.91;;;8.83;100.00
4398;BME280;2213;49.720;7.296;2023-12-28T09:56:23;98168.09;;;8.84;100.00
4398;BME280;2213;49.720;7.296;2023-12-28T09:58:57;98167.13;;;8.85;100.00
4398;BME280;2213;49.720;7.296;2023-12-28T10:01:28;98180.78;;;8.87;100.00
4398;BME280;2213;49.720;7.296;2023-12-28T10:03:57;98173.59;;;8.89;100.00
4398;BME280;2213;49.720;7.296;2023-12-28T10:06:26;98163.81;;;8.91;100.00
4398;BME280;2213;49.720;7.296;2023-12-28T10:08:55;98166.88;;;8.94;100.00
4398;BME280;2213;49.720;7.296;2023-12-28T10:11:24;98159.88;;;8.95;100.00
4398;BME280;2213;49.720;7.296;2023-12-28T10:13:54;98169.50;;;8.94;100.00
4398;BME280;2213;49.720;7.296;2023-12-28T10:16:22;98176.00;;;8.98;100.00
4398;BME280;2213;49.720;7.296;2023-12-28T10:18:52;98176.16;;;8.97;100.00
4398;BME280;2213;49.720;7.296;2023-12-28T10:21:23;98181.84;;;9.00;100.00
4398;BME280;2213;49.720;7.296;2023-12-28T10:23:51;98178.06;;;9.03;100.00
4398;BME280;2213;49.720;7.296;2023-12-28T10:26:21;98172.50;;;9.06;100.00
4398;BME280;2213;49.720;7.296;2023-12-28T10:28:57;98167.28;;;9.06;100.00
4398;BME280;2213;49.720;7.296;2023-12-28T10:31:25;98170.69;;;9.06;100.00
4398;BME280;2213;49.720;7.296;2023-12-28T10:33:58;98157.16;;;9.11;100.00
4398;BME280;2213;49.720;7.296;2023-12-28T10:36:31;98162.34;;;9.11;100.00
4398;BME280;2213;49.720;7.296;2023-12-28T10:39:05;98171.63;;;9.14;100.00
4398;BME280;2213;49.720;7.296;2023-12-28T10:41:37;98173.09;;;9.16;100.00
4398;BME280;2213;49.720;7.296;2023-12-28T10:44:13;98171.28;;;9.17;100.00
4398;BME280;2213;49.720;7.296;2023-12-28T10:46:44;98159.69;;;9.19;100.00
4398;BME280;2213;49.720;7.296;2023-12-28T10:49:21;98162.78;;;9.23;100.00
4398;BME280;2213;49.720;7.296;2023-12-28T10:51:54;98159.00;;;9.25;100.00
4398;BME280;2213;49.720;7.296;2023-12-28T10:54:35;98153.41;;;9.28;100.00
4398;BME280;2213;49.720;7.296;2023-12-28T10:57:11;98150.66;;;9.30;100.00
4398;BME280;2213;49.720;7.296;2023-12-28T10:59:56;98160.88;;;9.31;100.00
4398;BME280;2213;49.720;7.296;2023-12-28T11:02:33;98157.09;;;9.34;100.00
4398;BME280;2213;49.720;7.296;2023-12-28T11:05:08;98151.88;;;9.34;100.00
4398;BME280;2213;49.720;7.296;2023-12-28T11:07:38;98163.13;;;9.34;100.00
4398;BME280;2213;49.720;7.296;2023-12-28T11:10:09;98160.19;;;9.37;100.00
4398;BME280;2213;49.720;7.296;2023-12-28T11:12:38;98161.66;;;9.40;100.00
4398;BME280;2213;49.720;7.296;2023-12-28T11:15:09;98161.44;;;9.41;100.00
4398;BME280;2213;49.720;7.296;2023-12-28T11:17:40;98151.66;;;9.43;100.00
4398;BME280;2213;49.720;7.296;2023-12-28T11:20:11;98147.25;;;9.44;100.00
4398;BME280;2213;49.720;7.296;2023-12-28T11:22:41;98156.53;;;9.46;100.00
4398;BME280;2213;49.720;7.296;2023-12-28T11:25:15;98159.75;;;9.48;100.00
4398;BME280;2213;49.720;7.296;2023-12-28T11:27:46;98155.00;;;9.52;100.00
4398;BME280;2213;49.720;7.296;2023-12-28T11:30:15;98149.59;;;9.53;100.00
4398;BME280;2213;49.720;7.296;2023-12-28T11:32:44;98162.31;;;9.56;100.00
4398;BME280;2213;49.720;7.296;2023-12-28T11:35:14;98154.63;;;9.55;100.00
4398;BME280;2213;49.720;7.296;2023-12-28T11:37:48;98161.47;;;9.56;100.00
4398;BME280;2213;49.720;7.296;2023-12-28T11:40:20;98138.63;;;9.58;100.00
4398;BME280;2213;49.720;7.296;2023-12-28T11:42:53;98135.84;;;9.59;100.00
4398;BME280;2213;49.720;7.296;2023-12-28T11:45:23;98134.84;;;9.60;100.00
4398;BME280;2213;49.720;7.296;2023-12-28T11:48:02;98128.28;;;9.65;100.00
4398;BME280;2213;49.720;7.296;2023-12-28T11:50:33;98120.25;;;9.66;100.00
4398;BME280;2213;49.720;7.296;2023-12-28T11:53:02;98124.66;;;9.66;100.00
4398;BME280;2213;49.720;7.296;2023-12-28T11:55:31;98119.66;;;9.64;100.00
4398;BME280;2213;49.720;7.296;2023-12-28T11:58:00;98123.69;;;9.67;100.00
4398;BME280;2213;49.720;7.296;2023-12-28T12:00:29;98116.16;;;9.72;100.00
4398;BME280;2213;49.720;7.296;2023-12-28T12:02:58;98119.91;;;9.69;100.00
4398;BME280;2213;49.720;7.296;2023-12-28T12:05:28;98126.91;;;9.69;100.00
4398;BME280;2213;49.720;7.296;2023-12-28T12:07:58;98123.31;;;9.70;100.00
4398;BME280;2213;49.720;7.296;2023-12-28T12:10:27;98110.28;;;9.70;100.00
4398;BME280;2213;49.720;7.296;2023-12-28T12:13:00;98103.88;;;9.72;100.00
4398;BME280;2213;49.720;7.296;2023-12-28T12:15:30;98104.53;;;9.74;100.00
4398;BME280;2213;49.720;7.296;2023-12-28T12:18:00;98108.66;;;9.69;100.00
4398;BME280;2213;49.720;7.296;2023-12-28T12:20:30;98100.19;;;9.67;100.00
4398;BME280;2213;49.720;7.296;2023-12-28T12:23:00;98089.38;;;9.70;100.00
4398;BME280;2213;49.720;7.296;2023-12-28T12:25:29;98091.47;;;9.74;100.00
4398;BME280;2213;49.720;7.296;2023-12-28T12:27:58;98094.25;;;9.73;100.00
4398;BME280;2213;49.720;7.296;2023-12-28T12:30:26;98090.56;;;9.67;100.00
4398;BME280;2213;49.720;7.296;2023-12-28T12:32:55;98090.38;;;9.69;100.00
4398;BME280;2213;49.720;7.296;2023-12-28T12:35:24;98090.66;;;9.74;100.00
4398;BME280;2213;49.720;7.296;2023-12-28T12:37:53;98092.66;;;9.72;100.00
4398;BME280;2213;49.720;7.296;2023-12-28T12:40:24;98088.84;;;9.74;100.00
4398;BME280;2213;49.720;7.296;2023-12-28T12:42:54;98078.03;;;9.77;100.00
4398;BME280;2213;49.720;7.296;2023-12-28T12:45:24;98077.69;;;9.80;100.00
4398;BME280;2213;49.720;7.296;2023-12-28T12:47:52;98080.75;;;9.84;100.00
4398;BME280;2213;49.720;7.296;2023-12-28T12:50:21;98078.13;;;9.84;100.00
4398;BME280;2213;49.720;7.296;2023-12-28T12:52:50;98071.91;;;9.85;100.00
4398;BME280;2213;49.720;7.296;2023-12-28T12:55:18;98081.34;;;9.86;100.00
4398;BME280;2213;49.720;7.296;2023-12-28T12:57:48;98085.59;;;9.87;100.00
4398;BME280;2213;49.720;7.296;2023-12-28T13:00:19;98085.59;;;9.87;100.00
4398;BME280;2213;49.720;7.296;2023-12-28T13:02:49;98084.97;;;9.85;100.00
4398;BME280;2213;49.720;7.296;2023-12-28T13:05:20;98083.53;;;9.82;100.00
4398;BME280;2213;49.720;7.296;2023-12-28T13:07:49;98082.09;;;9.80;100.00
4398;BME280;2213;49.720;7.296;2023-12-28T13:10:18;98082.28;;;9.78;100.00
4398;BME280;2213;49.720;7.296;2023-12-28T13:12:48;98075.06;;;9.80;100.00
4398;BME280;2213;49.720;7.296;2023-12-28T13:15:16;98068.88;;;9.81;100.00
4398;BME280;2213;49.720;7.296;2023-12-28T13:17:45;98074.25;;;9.80;100.00
4398;BME280;2213;49.720;7.296;2023-12-28T13:20:14;98068.03;;;9.81;100.00
4398;BME280;2213;49.720;7.296;2023-12-28T13:22:42;98062.63;;;9.82;100.00
4398;BME280;2213;49.720;7.296;2023-12-28T13:25:11;98061.63;;;9.83;100.00
4398;BME280;2213;49.720;7.296;2023-12-28T13:27:40;98057.69;;;9.87;100.00
4398;BME280;2213;49.720;7.296;2023-12-28T13:30:12;98060.81;;;9.83;100.00
4398;BME280;2213;49.720;7.296;2023-12-28T13:32:41;98064.25;;;9.83;100.00
4398;BME280;2213;49.720;7.296;2023-12-28T13:35:09;98059.84;;;9.84;100.00